createdAt,value
2022-11-16T00:01:05.446Z,4.08
2022-11-16T00:03:33.442Z,4.24
2022-11-16T00:06:03.614Z,4.39
2022-11-16T00:08:32.872Z,4.39
2022-11-16T00:11:17.356Z,4.63
2022-11-16T00:13:44.120Z,4.58
2022-11-16T00:16:17.984Z,4.40
2022-11-16T00:18:45.517Z,4.24
2022-11-16T00:21:12.452Z,3.94
2022-11-16T00:23:40.013Z,4.12
2022-11-16T00:26:08.423Z,3.95
2022-11-16T00:28:35.837Z,3.84
2022-11-16T00:31:06.433Z,3.73
2022-11-16T00:33:35.191Z,3.75
2022-11-16T00:36:03.726Z,3.80
2022-11-16T00:38:30.889Z,3.75
2022-11-16T00:40:57.956Z,3.77
2022-11-16T00:43:27.361Z,4.03
2022-11-16T00:45:54.326Z,4.12
2022-11-16T00:48:22.598Z,4.14
2022-11-16T00:50:49.802Z,3.82
2022-11-16T00:53:19.471Z,3.78
2022-11-16T00:55:47.891Z,4.05
2022-11-16T00:58:15.803Z,4.22
2022-11-16T01:00:43.353Z,4.35
2022-11-16T01:03:10.954Z,4.35
2022-11-16T01:05:37.848Z,4.30
2022-11-16T01:08:04.909Z,4.39
2022-11-16T01:10:31.718Z,4.41
2022-11-16T01:12:58.969Z,4.17
2022-11-16T01:15:27.692Z,4.35
2022-11-16T01:17:56.549Z,4.45
2022-11-16T01:20:27.107Z,4.42
2022-11-16T01:22:55.679Z,4.51
2022-11-16T01:25:22.809Z,4.52
2022-11-16T01:27:49.756Z,4.52
2022-11-16T01:30:16.781Z,4.49
2022-11-16T01:32:43.790Z,4.54
2022-11-16T01:35:17.447Z,4.47
2022-11-16T01:37:45.153Z,4.45
2022-11-16T01:40:13.923Z,4.56
2022-11-16T01:42:41.480Z,4.68
2022-11-16T01:45:44.744Z,4.74
2022-11-16T01:48:14.787Z,4.55
2022-11-16T01:50:42.672Z,4.64
2022-11-16T01:53:11.379Z,4.79
2022-11-16T01:55:39.768Z,4.79
2022-11-16T01:58:07.576Z,4.76
2022-11-16T02:00:34.462Z,4.58
2022-11-16T02:03:01.762Z,4.31
2022-11-16T02:05:41.139Z,4.06
2022-11-16T02:08:24.777Z,3.98
2022-11-16T02:11:05.763Z,4.00
2022-11-16T02:14:10.773Z,4.27
2022-11-16T02:16:43.469Z,4.43
2022-11-16T02:19:38.152Z,3.64
2022-11-16T02:22:23.420Z,3.31
2022-11-16T02:25:13.641Z,3.28
2022-11-16T02:28:05.243Z,3.01
2022-11-16T02:30:32.770Z,3.00
2022-11-16T02:33:05.109Z,2.88
2022-11-16T02:35:37.832Z,2.84
2022-11-16T02:38:27.248Z,2.10
2022-11-16T02:41:10.857Z,2.29
2022-11-16T02:43:47.654Z,2.49
2022-11-16T02:46:25.202Z,2.47
2022-11-16T02:48:56.438Z,2.59
2022-11-16T02:51:27.574Z,2.47
2022-11-16T02:54:21.223Z,2.66
2022-11-16T02:57:03.453Z,3.02
2022-11-16T02:59:36.601Z,2.91
2022-11-16T03:02:21.531Z,2.64
2022-11-16T03:04:52.278Z,2.50
2022-11-16T03:07:26.045Z,2.36
2022-11-16T03:09:55.216Z,2.22
2022-11-16T03:12:25.687Z,2.24
2022-11-16T03:15:01.796Z,2.51
2022-11-16T03:17:37.050Z,2.82
2022-11-16T03:20:26.438Z,3.05
2022-11-16T03:23:03.484Z,2.82
2022-11-16T03:25:37.128Z,3.04
2022-11-16T03:28:08.499Z,3.21
2022-11-16T03:30:44.323Z,3.38
2022-11-16T03:33:19.538Z,3.30
2022-11-16T03:36:04.677Z,3.13
2022-11-16T03:38:36.298Z,3.03
2022-11-16T03:41:08.035Z,2.90
2022-11-16T03:43:36.538Z,2.85
2022-11-16T03:46:03.788Z,3.06
2022-11-16T03:48:39.740Z,3.06
2022-11-16T03:51:09.497Z,2.82
2022-11-16T03:53:36.658Z,2.81
2022-11-16T03:56:04.794Z,3.04
2022-11-16T03:58:33.975Z,3.00
2022-11-16T04:01:01.260Z,3.06
2022-11-16T04:03:28.066Z,3.25
2022-11-16T04:05:56.203Z,3.18
2022-11-16T04:08:23.077Z,3.04
2022-11-16T04:10:49.994Z,2.91
2022-11-16T04:13:23.720Z,2.67
2022-11-16T04:15:50.405Z,2.47
2022-11-16T04:18:17.844Z,2.54
2022-11-16T04:20:45.361Z,2.52
2022-11-16T04:23:16.496Z,2.39
2022-11-16T04:25:44.617Z,2.45
2022-11-16T04:28:12.255Z,2.58
2022-11-16T04:30:47.994Z,2.74
2022-11-16T04:33:14.880Z,3.06
2022-11-16T04:35:42.423Z,3.16
2022-11-16T04:38:09.192Z,3.11
2022-11-16T04:40:36.904Z,2.39
2022-11-16T04:43:04.942Z,2.41
2022-11-16T04:45:32.174Z,2.58
2022-11-16T04:47:58.917Z,2.88
2022-11-16T04:50:26.509Z,3.04
2022-11-16T04:52:53.211Z,3.09
2022-11-16T04:55:21.450Z,2.99
2022-11-16T04:57:48.344Z,3.24
2022-11-16T05:00:15.629Z,3.25
2022-11-16T05:02:42.491Z,3.37
2022-11-16T05:05:10.063Z,3.40
2022-11-16T05:07:39.126Z,3.37
2022-11-16T05:10:06.495Z,3.26
2022-11-16T05:12:34.552Z,3.28
2022-11-16T05:15:01.321Z,3.40
2022-11-16T05:17:28.454Z,3.66
2022-11-16T05:19:55.555Z,3.95
2022-11-16T05:22:22.654Z,4.11
2022-11-16T05:24:49.492Z,4.24
2022-11-16T05:27:18.310Z,4.32
2022-11-16T05:29:45.231Z,4.33
2022-11-16T05:32:13.182Z,4.28
2022-11-16T05:34:40.144Z,4.27
2022-11-16T05:37:07.195Z,4.35
2022-11-16T05:39:34.356Z,4.60
2022-11-16T05:42:01.606Z,4.73
2022-11-16T05:44:28.358Z,4.77
2022-11-16T05:46:55.394Z,4.93
2022-11-16T05:49:22.894Z,5.03
2022-11-16T05:51:50.035Z,4.96
2022-11-16T05:54:21.860Z,4.75
2022-11-16T05:56:49.616Z,4.55
2022-11-16T05:59:18.587Z,4.60
2022-11-16T06:01:45.946Z,4.78
2022-11-16T06:04:13.552Z,5.09
2022-11-16T06:06:40.950Z,5.48
2022-11-16T06:09:08.442Z,5.82
2022-11-16T06:11:36.331Z,6.10
2022-11-16T06:14:03.282Z,5.84
2022-11-16T06:16:30.203Z,5.58
2022-11-16T06:19:00.091Z,5.38
2022-11-16T06:21:27.264Z,5.52
2022-11-16T06:23:54.020Z,5.65
2022-11-16T06:26:21.145Z,5.94
2022-11-16T06:28:48.731Z,6.31
2022-11-16T06:31:15.551Z,5.83
2022-11-16T06:33:42.382Z,5.56
2022-11-16T06:36:12.220Z,5.13
2022-11-16T06:38:42.635Z,5.26
2022-11-16T06:41:09.569Z,5.56
2022-11-16T06:43:36.426Z,5.77
2022-11-16T06:46:03.284Z,6.12
2022-11-16T06:48:30.956Z,6.45
2022-11-16T06:50:57.887Z,6.43
2022-11-16T06:53:29.017Z,6.49
2022-11-16T06:56:00.386Z,6.45
2022-11-16T06:58:29.487Z,6.42
2022-11-16T07:00:56.211Z,6.29
2022-11-16T07:03:23.966Z,6.26
2022-11-16T07:05:50.775Z,6.43
2022-11-16T07:08:17.473Z,6.50
2022-11-16T07:10:44.516Z,6.68
2022-11-16T07:13:11.286Z,6.96
2022-11-16T07:15:38.067Z,7.27
2022-11-16T07:18:07.195Z,7.19
2022-11-16T07:20:34.836Z,7.12
2022-11-16T07:23:03.229Z,7.39
2022-11-16T07:25:31.890Z,7.55
2022-11-16T07:27:58.678Z,7.44
2022-11-16T07:30:26.555Z,7.51
2022-11-16T07:32:58.127Z,7.48
2022-11-16T07:35:25.310Z,7.59
2022-11-16T07:37:52.169Z,7.82
2022-11-16T07:40:19.465Z,7.80
2022-11-16T07:42:46.339Z,7.88
2022-11-16T07:45:13.245Z,7.50
2022-11-16T07:47:40.113Z,7.60
2022-11-16T07:50:07.532Z,7.72
2022-11-16T07:52:34.868Z,7.60
2022-11-16T07:55:02.053Z,7.71
2022-11-16T07:57:28.967Z,7.83
2022-11-16T07:59:56.013Z,7.96
2022-11-16T08:02:22.977Z,7.98
2022-11-16T08:04:50.514Z,8.00
2022-11-16T08:07:17.339Z,8.30
2022-11-16T08:09:44.270Z,8.36
2022-11-16T08:12:11.177Z,8.69
2022-11-16T08:14:37.992Z,8.36
2022-11-16T08:17:05.074Z,8.42
2022-11-16T08:19:31.922Z,8.53
2022-11-16T08:21:58.717Z,8.57
2022-11-16T08:24:26.092Z,8.69
2022-11-16T08:26:52.834Z,8.74
2022-11-16T08:29:19.730Z,8.86
2022-11-16T08:31:46.937Z,8.92
2022-11-16T08:34:16.204Z,8.92
2022-11-16T08:36:42.971Z,9.12
2022-11-16T08:39:09.952Z,9.31
2022-11-16T08:41:36.841Z,9.58
2022-11-16T08:44:04.273Z,9.48
2022-11-16T08:46:31.017Z,9.41
2022-11-16T08:48:58.446Z,9.60
2022-11-16T08:51:28.319Z,9.89
2022-11-16T08:53:59.076Z,9.99
2022-11-16T08:56:26.615Z,9.87
2022-11-16T08:58:58.398Z,9.79
2022-11-16T09:01:28.492Z,10.14
2022-11-16T09:03:56.305Z,10.17
2022-11-16T09:06:24.765Z,10.28
2022-11-16T09:08:52.527Z,10.48
2022-11-16T09:11:21.620Z,10.32
2022-11-16T09:13:49.989Z,10.52
2022-11-16T09:16:22.306Z,10.48
2022-11-16T09:18:51.927Z,10.65
2022-11-16T09:21:26.737Z,10.65
2022-11-16T09:24:05.641Z,10.88
2022-11-16T09:26:32.576Z,11.27
2022-11-16T09:29:01.177Z,11.02
2022-11-16T09:31:37.155Z,11.22
2022-11-16T09:34:04.055Z,11.28
2022-11-16T09:36:31.522Z,11.54
2022-11-16T09:42:08.448Z,11.48
2022-11-16T09:44:56.647Z,11.44
2022-11-16T09:47:47.057Z,11.61
2022-11-16T09:50:47.848Z,11.89
2022-11-16T09:53:23.973Z,11.51
2022-11-16T09:55:53.395Z,11.49
2022-11-16T09:58:47.130Z,11.34
2022-11-16T10:01:41.969Z,11.47
2022-11-16T10:04:18.313Z,11.58
2022-11-16T10:06:51.774Z,11.47
2022-11-16T10:09:19.574Z,11.53
2022-11-16T10:11:55.239Z,11.41
2022-11-16T10:14:42.940Z,11.47
2022-11-16T10:17:17.097Z,11.63
2022-11-16T10:20:10.763Z,11.62
2022-11-16T10:23:14.168Z,11.89
2022-11-16T10:25:45.122Z,12.13
2022-11-16T10:28:49.249Z,11.90
2022-11-16T10:31:50.949Z,11.94
2022-11-16T10:34:26.446Z,11.77
2022-11-16T10:37:01.244Z,11.68
2022-11-16T10:39:31.570Z,11.55
2022-11-16T10:42:07.211Z,11.38
2022-11-16T10:44:52.731Z,11.51
2022-11-16T10:47:34.051Z,11.69
2022-11-16T10:50:18.712Z,12.10
2022-11-16T10:52:45.590Z,11.94
2022-11-16T10:55:15.817Z,11.77
2022-11-16T10:58:03.459Z,12.01
2022-11-16T11:00:49.908Z,11.89
2022-11-16T11:03:30.597Z,12.09
2022-11-16T11:05:57.645Z,12.17
2022-11-16T11:08:27.583Z,11.79
2022-11-16T11:11:05.682Z,11.83
2022-11-16T11:13:32.873Z,12.02
2022-11-16T11:16:17.838Z,11.90
2022-11-16T11:18:46.266Z,11.83
2022-11-16T11:21:18.859Z,11.85
2022-11-16T11:23:49.590Z,11.64
2022-11-16T11:26:36.145Z,11.68
2022-11-16T11:29:20.746Z,11.91
2022-11-16T11:31:51.969Z,11.97
2022-11-16T11:34:35.375Z,11.77
2022-11-16T11:37:04.014Z,11.63
2022-11-16T11:39:32.816Z,11.62
2022-11-16T11:42:04.339Z,11.82
2022-11-16T11:44:38.664Z,11.84
2022-11-16T11:48:01.941Z,11.63
2022-11-16T11:51:06.930Z,11.48
2022-11-16T11:53:42.637Z,11.25
2022-11-16T11:56:12.885Z,11.26
2022-11-16T11:58:40.963Z,11.20
2022-11-16T12:01:44.462Z,11.02
2022-11-16T12:04:38.026Z,10.99
2022-11-16T12:07:18.457Z,10.89
2022-11-16T12:10:00.553Z,10.93
2022-11-16T12:13:21.243Z,10.93
2022-11-16T12:19:39.234Z,11.05
2022-11-16T12:22:40.084Z,11.32
2022-11-16T13:22:09.217Z,11.54
2022-11-16T13:28:38.261Z,11.69
2022-11-16T13:31:17.507Z,11.56
2022-11-16T13:44:51.673Z,11.40
2022-11-16T14:06:30.140Z,11.15
2022-11-16T14:08:58.234Z,11.03
2022-11-16T14:11:37.918Z,10.92
2022-11-16T14:14:10.584Z,10.89
2022-11-16T14:16:59.092Z,10.79
2022-11-16T14:19:44.324Z,10.81
2022-11-16T14:22:53.351Z,10.80
2022-11-16T14:25:28.485Z,10.67
2022-11-16T14:28:25.654Z,10.66
2022-11-16T14:31:01.302Z,10.57
2022-11-16T14:33:36.314Z,10.47
2022-11-16T14:36:06.687Z,10.53
2022-11-16T14:38:36.896Z,10.54
2022-11-16T14:41:06.780Z,10.56
2022-11-16T14:43:43.639Z,10.43
2022-11-16T14:46:35.019Z,10.51
2022-11-16T14:49:03.224Z,10.47
2022-11-16T14:51:41.955Z,10.48
2022-11-16T14:54:35.049Z,10.45
2022-11-16T14:57:04.730Z,10.51
2022-11-16T14:59:32.222Z,10.40
2022-11-16T15:02:04.883Z,10.36
2022-11-16T15:04:32.295Z,10.39
2022-11-16T15:07:03.308Z,10.26
2022-11-16T15:09:37.480Z,10.08
2022-11-16T15:12:07.003Z,10.08
2022-11-16T15:14:40.694Z,10.02
2022-11-16T15:17:08.280Z,9.96
2022-11-16T15:19:35.588Z,9.92
2022-11-16T15:22:04.363Z,9.87
2022-11-16T15:24:33.498Z,9.90
2022-11-16T15:27:09.573Z,9.81
2022-11-16T15:29:37.031Z,9.72
2022-11-16T15:32:04.707Z,9.63
2022-11-16T15:34:34.695Z,9.55
2022-11-16T15:37:02.437Z,9.46
2022-11-16T15:39:34.542Z,9.43
2022-11-16T15:42:04.189Z,9.37
2022-11-16T15:44:33.283Z,9.46
2022-11-16T15:47:02.443Z,9.33
2022-11-16T15:49:30.455Z,9.33
2022-11-16T15:51:58.713Z,9.29
2022-11-16T15:54:25.528Z,9.09
2022-11-16T15:56:56.064Z,9.14
2022-11-16T15:59:31.822Z,9.18
2022-11-16T16:02:07.051Z,9.21
2022-11-16T16:05:06.344Z,9.13
2022-11-16T16:07:41.769Z,9.19
2022-11-16T16:10:24.720Z,9.20
2022-11-16T16:12:56.867Z,9.12
2022-11-16T16:15:35.192Z,9.15
2022-11-16T16:18:04.081Z,9.28
2022-11-16T16:20:32.718Z,9.32
2022-11-16T16:23:11.615Z,9.42
2022-11-16T16:25:39.033Z,9.39
2022-11-16T16:28:07.126Z,9.41
2022-11-16T16:30:34.177Z,9.37
2022-11-16T16:33:02.284Z,9.34
2022-11-16T16:35:29.249Z,9.33
2022-11-16T16:38:00.603Z,9.32
2022-11-16T16:40:28.307Z,9.31
2022-11-16T16:42:56.497Z,9.27
2022-11-16T16:45:49.824Z,9.30
2022-11-16T16:48:16.637Z,9.17
2022-11-16T16:50:43.538Z,9.17
2022-11-16T16:53:14.467Z,9.18
2022-11-16T16:55:44.384Z,9.17
2022-11-16T16:58:13.072Z,9.18
2022-11-16T17:00:40.783Z,9.17
2022-11-16T17:03:08.022Z,9.05
2022-11-16T17:05:35.045Z,9.04
2022-11-16T17:08:02.082Z,8.93
2022-11-16T17:10:28.932Z,8.84
2022-11-16T17:12:58.890Z,8.79
2022-11-16T17:15:25.763Z,8.80
2022-11-16T17:17:52.591Z,8.80
2022-11-16T17:20:19.537Z,8.82
2022-11-16T17:22:46.332Z,8.81
2022-11-16T17:25:13.261Z,8.82
2022-11-16T17:27:40.140Z,8.78
2022-11-16T17:30:07.852Z,8.75
2022-11-16T17:32:34.697Z,8.74
2022-11-16T17:35:01.761Z,8.70
2022-11-16T17:37:28.613Z,8.72
2022-11-16T17:39:55.414Z,8.75
2022-11-16T17:42:22.356Z,8.70
2022-11-16T17:44:49.120Z,8.71
2022-11-16T17:47:16.013Z,8.79
2022-11-16T17:49:42.867Z,8.79
2022-11-16T17:52:09.679Z,8.74
2022-11-16T17:54:36.540Z,8.81
2022-11-16T17:57:03.363Z,8.88
2022-11-16T17:59:30.848Z,8.93
2022-11-16T18:01:57.704Z,9.02
2022-11-16T18:04:24.677Z,9.08
2022-11-16T18:06:51.964Z,9.07
2022-11-16T18:09:18.820Z,9.03
2022-11-16T18:11:45.857Z,8.80
2022-11-16T18:14:13.100Z,8.72
2022-11-16T18:16:39.918Z,8.74
2022-11-16T18:19:07.473Z,8.72
2022-11-16T18:21:41.348Z,8.75
2022-11-16T18:24:09.178Z,8.85
2022-11-16T18:26:36.919Z,8.98
2022-11-16T18:29:04.070Z,8.93
2022-11-16T18:31:30.905Z,9.04
2022-11-16T18:33:57.719Z,9.12
2022-11-16T18:36:24.831Z,9.16
2022-11-16T18:38:51.610Z,9.04
2022-11-16T18:41:25.112Z,9.13
2022-11-16T18:44:00.198Z,9.12
2022-11-16T18:46:32.528Z,9.15
2022-11-16T18:49:03.139Z,9.14
2022-11-16T18:51:29.969Z,8.91
2022-11-16T18:53:56.761Z,8.78
2022-11-16T18:56:24.708Z,8.89
2022-11-16T18:58:52.897Z,9.01
2022-11-16T19:01:22.935Z,9.02
2022-11-16T19:03:50.993Z,9.07
2022-11-16T19:06:18.439Z,9.10
2022-11-16T19:08:50.515Z,8.96
2022-11-16T19:11:23.104Z,8.97
2022-11-16T19:13:54.829Z,9.00
2022-11-16T19:16:22.345Z,8.93
2022-11-16T19:18:49.260Z,9.05
2022-11-16T19:21:17.072Z,9.07
2022-11-16T19:23:46.466Z,9.09
2022-11-16T19:26:17.933Z,9.08
2022-11-16T19:28:49.304Z,9.08
2022-11-16T19:31:19.656Z,9.04
2022-11-16T19:33:46.719Z,9.03
2022-11-16T19:36:15.820Z,8.71
2022-11-16T19:38:43.372Z,8.70
2022-11-16T19:41:12.038Z,8.75
2022-11-16T19:43:39.205Z,8.79
2022-11-16T19:46:14.762Z,8.73
2022-11-16T19:48:41.485Z,8.72
2022-11-16T19:51:11.284Z,8.80
2022-11-16T19:53:40.052Z,8.61
2022-11-16T19:56:10.270Z,8.43
2022-11-16T19:58:37.876Z,8.22
2022-11-16T20:01:13.944Z,8.14
2022-11-16T20:03:40.945Z,8.04
2022-11-16T20:06:34.641Z,8.06
2022-11-16T20:09:04.465Z,8.23
2022-11-16T20:11:33.725Z,8.41
2022-11-16T20:14:01.990Z,8.32
2022-11-16T20:16:38.780Z,8.26
2022-11-16T20:19:10.587Z,8.38
2022-11-16T20:21:42.113Z,8.39
2022-11-16T20:24:16.475Z,8.23
2022-11-16T20:26:45.236Z,8.32
2022-11-16T20:29:14.773Z,8.38
2022-11-16T20:31:41.681Z,8.36
2022-11-16T20:34:11.832Z,8.34
2022-11-16T20:36:38.667Z,8.07
2022-11-16T20:39:05.398Z,7.84
2022-11-16T20:41:33.554Z,7.73
2022-11-16T20:44:02.096Z,7.69
2022-11-16T20:46:33.450Z,7.72
2022-11-16T20:49:00.603Z,7.81
2022-11-16T20:51:42.930Z,7.81
2022-11-16T20:54:09.785Z,7.74
2022-11-16T20:56:36.717Z,7.78
2022-11-16T20:59:03.580Z,7.79
2022-11-16T21:01:30.484Z,7.58
2022-11-16T21:04:05.728Z,7.35
2022-11-16T21:06:33.425Z,7.21
2022-11-16T21:09:01.334Z,7.07
2022-11-16T21:11:30.292Z,7.08
2022-11-16T21:13:57.504Z,7.05
2022-11-16T21:16:24.989Z,7.04
2022-11-16T21:18:53.278Z,6.95
2022-11-16T21:21:20.038Z,6.88
2022-11-16T21:23:48.261Z,6.82
2022-11-16T21:26:15.528Z,6.76
2022-11-16T21:28:42.793Z,6.73
2022-11-16T21:31:22.523Z,6.72
2022-11-16T21:33:49.373Z,6.65
2022-11-16T21:36:18.490Z,6.59
2022-11-16T21:38:46.737Z,6.48
2022-11-16T21:41:15.579Z,6.33
2022-11-16T21:43:42.699Z,6.35
2022-11-16T21:46:15.484Z,6.10
2022-11-16T21:48:42.715Z,5.80
2022-11-16T21:51:13.060Z,5.77
2022-11-16T21:53:40.380Z,5.80
2022-11-16T21:56:10.723Z,5.85
2022-11-16T21:58:39.082Z,5.85
2022-11-16T22:01:07.766Z,5.89
2022-11-16T22:03:34.941Z,5.85
2022-11-16T22:06:10.361Z,5.74
2022-11-16T22:08:38.567Z,5.72
2022-11-16T22:11:05.683Z,5.64
2022-11-16T22:13:32.752Z,5.58
2022-11-16T22:16:13.844Z,5.50
2022-11-16T22:18:40.776Z,5.43
2022-11-16T22:21:07.808Z,5.31
2022-11-16T22:23:35.299Z,5.18
2022-11-16T22:26:04.430Z,5.09
2022-11-16T22:28:33.476Z,5.00
2022-11-16T22:31:14.455Z,5.02
2022-11-16T22:33:41.944Z,4.99
2022-11-16T22:36:12.427Z,5.26
2022-11-16T22:38:39.213Z,5.48
2022-11-16T22:41:08.077Z,5.52
2022-11-16T22:43:35.218Z,5.60
2022-11-16T22:46:05.470Z,5.67
2022-11-16T22:48:33.835Z,5.75
2022-11-16T22:51:19.105Z,5.76
2022-11-16T22:53:46.053Z,5.75
2022-11-16T22:56:13.565Z,5.73
2022-11-16T22:58:40.339Z,5.77
2022-11-16T23:01:09.191Z,5.78
2022-11-16T23:03:36.881Z,5.78
2022-11-16T23:06:05.700Z,5.82
2022-11-16T23:08:33.291Z,5.84
2022-11-16T23:11:06.524Z,5.91
2022-11-16T23:13:33.659Z,5.98
2022-11-16T23:16:04.971Z,5.94
2022-11-16T23:18:31.896Z,5.84
2022-11-16T23:20:58.709Z,5.72
2022-11-16T23:23:25.507Z,5.62
2022-11-16T23:25:53.770Z,5.44
2022-11-16T23:28:21.140Z,5.39
2022-11-16T23:30:47.865Z,5.28
2022-11-16T23:33:14.733Z,5.15
2022-11-16T23:35:54.156Z,5.04
2022-11-16T23:38:20.867Z,4.97
2022-11-16T23:40:47.657Z,4.91
2022-11-16T23:43:14.416Z,4.93
2022-11-16T23:45:42.093Z,5.00
2022-11-16T23:48:10.870Z,5.13
2022-11-16T23:50:37.876Z,5.33
2022-11-16T23:53:06.260Z,5.41
2022-11-16T23:55:34.639Z,5.41
2022-11-16T23:58:01.935Z,5.42
